PLF202 EPKK-EPKK
Flight info
| Callsign | PLF202 |
|---|---|
| Flight time | 0h 43m |
| Altitude | 2000 |
| Route | STAY01/0030/ EPKK |
| Aircraft | AN28/L-SFG/C |
Departure
| Time | 2026-05-04 17:23 |
|---|---|
| Airport | Kraków John Paul II International Airport (EPKK) |
Arrival
| Time | 2026-05-04 18:06 |
|---|---|
| Airport | Kraków John Paul II International Airport (EPKK) |
| Time | Latitude | Longitude | Altitude | Speed | Heading |
|---|---|---|---|---|---|
| 2026-05-04 16:46 | 50.07595 | 19.79374 | 787 ft | 0 kts | 348° |
| 2026-05-04 17:20 | 50.07628 | 19.79339 | 787 ft | 7 kts | 292° |
| 2026-05-04 17:20 | 50.07626 | 19.79142 | 787 ft | 10 kts | 313° |
| 2026-05-04 17:20 | 50.07696 | 19.79109 | 787 ft | 12 kts | 347° |
| 2026-05-04 17:21 | 50.07763 | 19.79085 | 787 ft | 0 kts | 349° |
| 2026-05-04 17:21 | 50.07790 | 19.79075 | 787 ft | 7 kts | 346° |
| 2026-05-04 17:22 | 50.07824 | 19.78851 | 789 ft | 56 kts | 259° |
| 2026-05-04 17:22 | 50.07684 | 19.77882 | 808 ft | 119 kts | 259° |
| 2026-05-04 17:23 | 50.08531 | 19.77173 | 1443 ft | 164 kts | 81° |
| 2026-05-04 17:23 | 50.08723 | 19.79099 | 1307 ft | 189 kts | 80° |
| 2026-05-04 17:23 | 50.08563 | 19.82532 | 1740 ft | 149 kts | 177° |
| 2026-05-04 17:24 | 50.08087 | 19.81529 | 1614 ft | 127 kts | 264° |
| 2026-05-04 17:24 | 50.07507 | 19.76189 | 1320 ft | 162 kts | 269° |
| 2026-05-04 17:25 | 50.08182 | 19.75114 | 1429 ft | 163 kts | 5° |
| 2026-05-04 17:25 | 50.08835 | 19.78368 | 1313 ft | 182 kts | 85° |
| 2026-05-04 17:26 | 50.09043 | 19.82217 | 1242 ft | 166 kts | 122° |
| 2026-05-04 17:26 | 50.07861 | 19.79077 | 788 ft | 95 kts | 258° |
| 2026-05-04 17:27 | 50.07532 | 19.76479 | 1148 ft | 134 kts | 273° |
| 2026-05-04 17:27 | 50.09078 | 19.76749 | 1648 ft | 161 kts | 42° |
| 2026-05-04 17:28 | 50.10239 | 19.79174 | 1641 ft | 133 kts | 19° |
| 2026-05-04 17:29 | 50.11314 | 19.76091 | 1730 ft | 117 kts | 259° |
| 2026-05-04 17:29 | 50.09862 | 19.77658 | 1461 ft | 128 kts | 171° |
| 2026-05-04 17:30 | 50.09117 | 19.80895 | 1592 ft | 167 kts | 76° |
| 2026-05-04 17:31 | 50.08056 | 19.82369 | 1255 ft | 171 kts | 261° |
| 2026-05-04 17:31 | 50.07516 | 19.76654 | 1005 ft | 179 kts | 258° |
| 2026-05-04 17:32 | 50.08488 | 19.74150 | 1370 ft | 177 kts | 18° |
| 2026-05-04 17:33 | 50.09454 | 19.79710 | 1488 ft | 182 kts | 39° |
| 2026-05-04 17:33 | 50.10597 | 19.80105 | 1533 ft | 169 kts | 338° |
| 2026-05-04 17:34 | 50.09429 | 19.79841 | 1160 ft | 156 kts | 153° |
| 2026-05-04 17:34 | 50.08509 | 19.80169 | 940 ft | 114 kts | 180° |
| 2026-05-04 17:35 | 50.07587 | 19.77179 | 1125 ft | 145 kts | 259° |
| 2026-05-04 17:35 | 50.07534 | 19.74055 | 1570 ft | 146 kts | 305° |
| 2026-05-04 17:35 | 50.08362 | 19.73605 | 1535 ft | 132 kts | 22° |
| 2026-05-04 17:36 | 50.08718 | 19.74820 | 1518 ft | 134 kts | 86° |
| 2026-05-04 17:36 | 50.08759 | 19.76251 | 1421 ft | 123 kts | 86° |
| 2026-05-04 17:36 | 50.08804 | 19.77617 | 1397 ft | 126 kts | 84° |
| 2026-05-04 17:36 | 50.08931 | 19.78882 | 1358 ft | 119 kts | 74° |
| 2026-05-04 17:37 | 50.09383 | 19.79834 | 1445 ft | 122 kts | 17° |
| 2026-05-04 17:37 | 50.10279 | 19.79714 | 1703 ft | 138 kts | 335° |
| 2026-05-04 17:37 | 50.11066 | 19.78718 | 1729 ft | 160 kts | 304° |
| 2026-05-04 17:37 | 50.11451 | 19.77039 | 1805 ft | 164 kts | 277° |
| 2026-05-04 17:38 | 50.11434 | 19.75328 | 1901 ft | 153 kts | 245° |
| 2026-05-04 17:38 | 50.10471 | 19.74958 | 1768 ft | 180 kts | 143° |
| 2026-05-04 17:38 | 50.10179 | 19.76783 | 1832 ft | 176 kts | 92° |
| 2026-05-04 17:38 | 50.10163 | 19.78819 | 1526 ft | 196 kts | 91° |
| 2026-05-04 17:39 | 50.11093 | 19.81995 | 1515 ft | 174 kts | 349° |
| 2026-05-04 17:39 | 50.11689 | 19.80689 | 1625 ft | 148 kts | 272° |
| 2026-05-04 17:39 | 50.11636 | 19.79147 | 1818 ft | 136 kts | 263° |
| 2026-05-04 17:40 | 50.11549 | 19.77688 | 1869 ft | 135 kts | 266° |
| 2026-05-04 17:40 | 50.11582 | 19.76205 | 1821 ft | 139 kts | 272° |
| 2026-05-04 17:40 | 50.11454 | 19.74919 | 1877 ft | 133 kts | 242° |
| 2026-05-04 17:41 | 50.11190 | 19.74494 | 1848 ft | 137 kts | 210° |
| 2026-05-04 17:41 | 50.10359 | 19.75090 | 1607 ft | 158 kts | 110° |
| 2026-05-04 17:42 | 50.10183 | 19.76803 | 1421 ft | 164 kts | 95° |
| 2026-05-04 17:42 | 50.10121 | 19.78485 | 1504 ft | 141 kts | 90° |
| 2026-05-04 17:42 | 50.10128 | 19.79978 | 1476 ft | 128 kts | 86° |
| 2026-05-04 17:42 | 50.10613 | 19.80912 | 1493 ft | 124 kts | 348° |
| 2026-05-04 17:43 | 50.10640 | 19.80029 | 1484 ft | 115 kts | 203° |
| 2026-05-04 17:43 | 50.09862 | 19.79845 | 1470 ft | 119 kts | 191° |
| 2026-05-04 17:43 | 50.09028 | 19.79908 | 1223 ft | 115 kts | 175° |
| 2026-05-04 17:43 | 50.08311 | 19.79944 | 969 ft | 104 kts | 194° |
| 2026-05-04 17:44 | 50.07873 | 19.79266 | 805 ft | 97 kts | 263° |
| 2026-05-04 17:44 | 50.07706 | 19.77986 | 928 ft | 135 kts | 258° |
| 2026-05-04 17:44 | 50.07500 | 19.76512 | 1195 ft | 145 kts | 260° |
| 2026-05-04 17:44 | 50.07929 | 19.75205 | 1345 ft | 159 kts | 348° |
| 2026-05-04 17:45 | 50.08699 | 19.76290 | 1460 ft | 174 kts | 74° |
| 2026-05-04 17:45 | 50.08784 | 19.78103 | 1709 ft | 162 kts | 113° |
| 2026-05-04 17:45 | 50.07903 | 19.79095 | 1816 ft | 162 kts | 163° |
| 2026-05-04 17:45 | 50.06782 | 19.79529 | 1776 ft | 173 kts | 175° |
| 2026-05-04 17:46 | 50.05534 | 19.79369 | 1434 ft | 191 kts | 204° |
| 2026-05-04 17:46 | 50.04840 | 19.77793 | 1520 ft | 173 kts | 259° |
| 2026-05-04 17:46 | 50.04296 | 19.76468 | 1698 ft | 161 kts | 182° |
| 2026-05-04 17:46 | 50.03820 | 19.77826 | 1851 ft | 171 kts | 76° |
| 2026-05-04 17:47 | 50.04121 | 19.79613 | 2046 ft | 176 kts | 75° |
| 2026-05-04 17:47 | 50.04541 | 19.81394 | 2360 ft | 172 kts | 69° |
| 2026-05-04 17:47 | 50.05346 | 19.82381 | 1691 ft | 171 kts | 311° |
| 2026-05-04 17:47 | 50.05130 | 19.80619 | 1517 ft | 170 kts | 254° |
| 2026-05-04 17:48 | 50.04856 | 19.78846 | 1558 ft | 165 kts | 261° |
| 2026-05-04 17:48 | 50.04725 | 19.77217 | 1808 ft | 136 kts | 231° |
| 2026-05-04 17:48 | 50.03916 | 19.77614 | 1718 ft | 161 kts | 110° |
| 2026-05-04 17:48 | 50.04174 | 19.79217 | 1739 ft | 156 kts | 55° |
| 2026-05-04 17:49 | 50.04737 | 19.80486 | 1535 ft | 141 kts | 85° |
| 2026-05-04 17:49 | 50.04722 | 19.81917 | 1501 ft | 133 kts | 66° |
| 2026-05-04 17:49 | 50.05257 | 19.83211 | 1584 ft | 139 kts | 34° |
| 2026-05-04 17:49 | 50.05678 | 19.82394 | 1561 ft | 144 kts | 260° |
| 2026-05-04 17:50 | 50.05479 | 19.80803 | 1395 ft | 171 kts | 258° |
| 2026-05-04 17:50 | 50.05435 | 19.79376 | 1261 ft | 174 kts | 275° |
| 2026-05-04 17:50 | 50.05068 | 19.77956 | 1533 ft | 149 kts | 187° |
| 2026-05-04 17:51 | 50.04475 | 19.79066 | 1919 ft | 157 kts | 85° |
| 2026-05-04 17:51 | 50.05013 | 19.80573 | 1704 ft | 185 kts | 53° |
| 2026-05-04 17:51 | 50.05550 | 19.82216 | 1663 ft | 157 kts | 81° |
| 2026-05-04 17:51 | 50.04907 | 19.83092 | 1448 ft | 145 kts | 211° |
| 2026-05-04 17:52 | 50.04609 | 19.81597 | 1279 ft | 158 kts | 271° |
| 2026-05-04 17:52 | 50.04526 | 19.79868 | 1202 ft | 160 kts | 263° |
| 2026-05-04 17:52 | 50.04337 | 19.78232 | 1223 ft | 158 kts | 297° |
| 2026-05-04 17:52 | 50.05224 | 19.78425 | 1090 ft | 183 kts | 73° |
| 2026-05-04 17:53 | 50.05020 | 19.80302 | 1331 ft | 177 kts | 107° |
| 2026-05-04 17:53 | 50.04854 | 19.81533 | 1388 ft | 179 kts | 87° |
| 2026-05-04 17:53 | 50.05317 | 19.82223 | 1503 ft | 164 kts | 343° |
| 2026-05-04 17:53 | 50.05427 | 19.80692 | 1411 ft | 161 kts | 253° |
| 2026-05-04 17:54 | 50.05085 | 19.79014 | 1617 ft | 164 kts | 251° |
| 2026-05-04 17:54 | 50.04703 | 19.77376 | 1717 ft | 154 kts | 242° |
| 2026-05-04 17:54 | 50.03799 | 19.77270 | 1859 ft | 174 kts | 125° |
| 2026-05-04 17:54 | 50.04042 | 19.79053 | 1493 ft | 192 kts | 47° |
| 2026-05-04 17:55 | 50.04340 | 19.80546 | 1828 ft | 150 kts | 178° |
| 2026-05-04 17:55 | 50.03969 | 19.79344 | 1892 ft | 149 kts | 274° |
| 2026-05-04 17:55 | 50.04368 | 19.77735 | 1917 ft | 168 kts | 301° |
| 2026-05-04 17:55 | 50.05430 | 19.77039 | 1602 ft | 162 kts | 11° |
| 2026-05-04 17:56 | 50.06117 | 19.78184 | 1388 ft | 124 kts | 69° |
| 2026-05-04 17:56 | 50.06350 | 19.79432 | 1214 ft | 112 kts | 69° |
| 2026-05-04 17:56 | 50.06829 | 19.80315 | 1118 ft | 112 kts | 7° |
| 2026-05-04 17:56 | 50.07519 | 19.79953 | 1044 ft | 93 kts | 319° |
| 2026-05-04 17:57 | 50.07788 | 19.79314 | 944 ft | 68 kts | 289° |
| 2026-05-04 17:57 | 50.07738 | 19.78218 | 943 ft | 124 kts | 258° |
| 2026-05-04 17:57 | 50.07529 | 19.76761 | 1086 ft | 141 kts | 252° |
| 2026-05-04 17:57 | 50.06825 | 19.76935 | 1378 ft | 155 kts | 111° |
| 2026-05-04 17:58 | 50.06692 | 19.78122 | 1360 ft | 79 kts | 95° |
| 2026-05-04 17:58 | 50.06658 | 19.78977 | 1131 ft | 80 kts | 82° |
| 2026-05-04 17:58 | 50.06754 | 19.79949 | 1090 ft | 115 kts | 65° |
| 2026-05-04 17:58 | 50.07448 | 19.80367 | 1235 ft | 137 kts | 336° |
| 2026-05-04 17:59 | 50.07866 | 19.79251 | 918 ft | 133 kts | 266° |
| 2026-05-04 17:59 | 50.07669 | 19.77757 | 1051 ft | 149 kts | 260° |
| 2026-05-04 17:59 | 50.06565 | 19.76901 | 1287 ft | 151 kts | 74° |
| 2026-05-04 18:00 | 50.06832 | 19.78473 | 1394 ft | 166 kts | 88° |
| 2026-05-04 18:00 | 50.06733 | 19.79665 | 1405 ft | 172 kts | 116° |
| 2026-05-04 18:00 | 50.05383 | 19.80783 | 1456 ft | 176 kts | 185° |
| 2026-05-04 18:00 | 50.04544 | 19.79636 | 1400 ft | 172 kts | 249° |
| 2026-05-04 18:01 | 50.04503 | 19.77874 | 1455 ft | 161 kts | 306° |
| 2026-05-04 18:01 | 50.05166 | 19.77687 | 1550 ft | 158 kts | 28° |
| 2026-05-04 18:01 | 50.05339 | 19.79154 | 1579 ft | 153 kts | 130° |
| 2026-05-04 18:02 | 50.04966 | 19.78115 | 1300 ft | 152 kts | 20° |
| 2026-05-04 18:02 | 50.05104 | 19.79479 | 1239 ft | 159 kts | 144° |
| 2026-05-04 18:02 | 50.04325 | 19.78971 | 1329 ft | 134 kts | 262° |
| 2026-05-04 18:02 | 50.04898 | 19.78178 | 1405 ft | 145 kts | 19° |
| 2026-05-04 18:03 | 50.05099 | 19.79310 | 1450 ft | 148 kts | 130° |
| 2026-05-04 18:03 | 50.05076 | 19.79353 | 1455 ft | 148 kts | 132° |
| 2026-05-04 18:03 | 50.04652 | 19.79638 | 1377 ft | 149 kts | 191° |
| 2026-05-04 18:04 | 50.04448 | 19.78534 | 1583 ft | 135 kts | 322° |
| 2026-05-04 18:04 | 50.05407 | 19.78424 | 1464 ft | 145 kts | 5° |
| 2026-05-04 18:04 | 50.06576 | 19.80609 | 1304 ft | 146 kts | 80° |
| 2026-05-04 18:05 | 50.06792 | 19.82070 | 1322 ft | 127 kts | 70° |
| 2026-05-04 18:05 | 50.07389 | 19.82654 | 1292 ft | 109 kts | 338° |
| 2026-05-04 18:05 | 50.07913 | 19.81618 | 1201 ft | 122 kts | 286° |
| 2026-05-04 18:05 | 50.08020 | 19.80474 | 876 ft | 94 kts | 269° |
| 2026-05-04 18:06 | 50.07897 | 19.79362 | 787 ft | 38 kts | 257° |
| 2026-05-04 18:06 | 50.07823 | 19.79091 | 788 ft | 23 kts | 212° |
| 2026-05-04 18:06 | 50.07701 | 19.79106 | 788 ft | 3 kts | 163° |
| 2026-05-04 18:07 | 50.07658 | 19.79121 | 788 ft | 10 kts | 168° |
| 2026-05-04 18:07 | 50.07620 | 19.79206 | 788 ft | 14 kts | 76° |
| 2026-05-04 18:07 | 50.07647 | 19.79382 | 787 ft | 19 kts | 72° |
| 2026-05-04 18:07 | 50.07673 | 19.79590 | 787 ft | 20 kts | 75° |
| 2026-05-04 18:08 | 50.07637 | 19.79705 | 788 ft | 2 kts | 166° |
| 2026-05-04 18:08 | 50.07625 | 19.79708 | 788 ft | 4 kts | 170° |
| 2026-05-04 18:08 | 50.07582 | 19.79710 | 788 ft | 8 kts | 223° |
| 2026-05-04 18:08 | 50.07567 | 19.79638 | 788 ft | 0 kts | 257° |